createdAt,value
2019-03-26T00:01:07.000Z,71.569824
2019-03-26T00:03:20.929Z,71.264648
2019-03-26T00:05:34.766Z,70.953369
2019-03-26T00:07:55.994Z,71.264648
2019-03-26T00:10:18.259Z,71.777344
2019-03-26T00:12:32.173Z,72.088623
2019-03-26T00:14:54.261Z,72.2229
2019-03-26T00:17:08.128Z,72.119141
2019-03-26T00:19:22.015Z,72.2229
2019-03-26T00:21:36.046Z,72.119141
2019-03-26T00:23:49.810Z,71.777344
2019-03-26T00:26:11.062Z,71.673584
2019-03-26T00:28:25.021Z,71.881104
2019-03-26T00:30:38.939Z,71.984863
2019-03-26T00:33:00.081Z,71.984863
2019-03-26T00:35:13.932Z,71.984863
2019-03-26T00:37:27.867Z,71.368408
2019-03-26T00:39:41.664Z,71.673584
2019-03-26T00:41:55.816Z,71.466064
2019-03-26T00:44:09.706Z,71.984863
2019-03-26T00:46:24.612Z,71.569824
2019-03-26T00:48:38.607Z,70.849609
2019-03-26T00:50:52.527Z,71.160889
2019-03-26T00:53:13.762Z,71.264648
2019-03-26T00:55:27.630Z,71.264648
2019-03-26T00:57:41.588Z,71.264648
2019-03-26T00:59:55.659Z,71.777344
2019-03-26T01:02:09.630Z,71.777344
2019-03-26T01:04:32.458Z,71.673584
2019-03-26T01:06:37.469Z,71.569824
2019-03-26T01:08:51.382Z,70.953369
2019-03-26T01:11:05.348Z,71.673584
2019-03-26T01:13:26.653Z,71.057129
2019-03-26T01:15:48.874Z,71.673584
2019-03-26T01:18:02.823Z,71.466064
2019-03-26T01:20:16.758Z,71.057129
2019-03-26T01:22:38.049Z,70.880127
2019-03-26T01:24:52.251Z,71.813965
2019-03-26T01:27:05.924Z,71.295166
2019-03-26T01:29:19.685Z,70.983887
2019-03-26T01:31:33.476Z,69.952393
2019-03-26T01:33:55.057Z,70.159912
2019-03-26T01:36:08.993Z,70.159912
2019-03-26T01:38:23.010Z,70.263672
2019-03-26T01:40:36.907Z,70.880127
2019-03-26T01:42:50.840Z,71.264648
2019-03-26T01:45:04.761Z,70.53833
2019-03-26T01:47:18.728Z,69.952393
2019-03-26T01:49:39.955Z,70.776367
2019-03-26T01:51:53.837Z,70.776367
2019-03-26T01:54:07.858Z,70.159912
2019-03-26T01:56:21.785Z,70.397949
2019-03-26T01:58:43.137Z,70.19043
2019-03-26T02:00:57.130Z,70.294189
2019-03-26T02:03:18.441Z,70.263672
2019-03-26T02:05:32.335Z,70.159912
2019-03-26T02:07:46.306Z,69.024658
2019-03-26T02:10:00.572Z,69.641113
2019-03-26T02:12:14.339Z,69.744873
2019-03-26T02:14:28.265Z,69.87915
2019-03-26T02:16:42.371Z,70.812988
2019-03-26T02:18:56.347Z,70.159912
2019-03-26T02:21:10.245Z,69.952393
2019-03-26T02:23:24.445Z,69.952393
2019-03-26T02:25:39.332Z,69.744873
2019-03-26T02:27:53.170Z,69.671631
2019-03-26T02:30:07.168Z,69.470215
2019-03-26T02:32:21.126Z,70.19043
2019-03-26T02:34:35.057Z,70.294189
2019-03-26T02:36:49.022Z,70.501709
2019-03-26T02:39:02.960Z,69.98291
2019-03-26T02:41:16.900Z,70.08667
2019-03-26T02:43:30.898Z,69.262695
2019-03-26T02:45:44.783Z,69.158936
2019-03-26T02:47:58.691Z,70.08667
2019-03-26T02:50:12.613Z,69.567871
2019-03-26T02:52:26.656Z,69.537354
2019-03-26T02:54:40.840Z,67.504883
2019-03-26T02:56:54.758Z,68.017578
2019-03-26T02:59:08.682Z,67.816162
2019-03-26T03:01:22.689Z,67.193604
2019-03-26T03:03:36.743Z,66.467285
2019-03-26T03:05:50.847Z,66.229248
2019-03-26T03:08:04.712Z,66.955566
2019-03-26T03:10:18.546Z,65.332031
2019-03-26T03:12:32.581Z,65.85083
2019-03-26T03:14:46.845Z,64.916992
2019-03-26T03:17:00.789Z,65.74707
2019-03-26T03:19:15.980Z,68.847656
2019-03-26T03:21:35.956Z,66.778564
2019-03-26T03:23:49.934Z,66.363525
2019-03-26T03:26:03.873Z,66.644287
2019-03-26T03:28:17.789Z,65.332031
2019-03-26T03:30:39.229Z,67.504883
2019-03-26T03:33:00.466Z,66.882324
2019-03-26T03:35:22.134Z,67.401123
2019-03-26T03:37:52.517Z,67.297363
2019-03-26T03:40:17.019Z,65.95459
2019-03-26T07:22:47.192Z,67.950439
2019-03-26T07:25:01.194Z,66.912842
2019-03-26T07:27:14.973Z,66.394043
2019-03-26T07:29:28.774Z,67.224121
2019-03-26T07:31:42.529Z,66.394043
2019-03-26T07:33:56.286Z,66.809082
2019-03-26T07:36:10.075Z,65.985107
2019-03-26T07:38:23.828Z,66.705322
2019-03-26T07:40:37.678Z,66.394043
2019-03-26T07:42:51.468Z,65.985107
2019-03-26T07:45:05.308Z,67.120361
2019-03-26T07:47:19.159Z,66.363525
2019-03-26T07:49:33.005Z,65.155029
2019-03-26T07:51:46.780Z,64.73999
2019-03-26T07:54:00.529Z,65.124512
2019-03-26T07:56:14.405Z,64.0625
2019-03-26T07:58:28.292Z,64.447021
2019-03-26T08:00:42.112Z,63.000488
2019-03-26T08:02:55.867Z,61.968994
2019-03-26T08:05:09.733Z,63.000488
2019-03-26T08:07:24.630Z,62.585449
2019-03-26T08:09:38.493Z,63.07373
2019-03-26T08:11:52.318Z,61.523438
2019-03-26T08:14:07.242Z,60.699463
2019-03-26T08:16:21.010Z,62.457275
2019-03-26T08:18:34.971Z,62.322998
2019-03-26T08:20:48.987Z,59.771729
2019-03-26T08:23:02.897Z,60.418701
2019-03-26T08:25:16.828Z,61.450195
2019-03-26T08:27:30.774Z,61.627197
2019-03-26T08:29:44.613Z,58.660889
2019-03-26T08:31:58.428Z,60.626221
2019-03-26T08:34:12.224Z,60.180664
2019-03-26T08:36:26.009Z,60.803223
2019-03-26T08:38:39.887Z,60.827637
2019-03-26T08:40:53.753Z,61.242676
2019-03-26T08:43:07.544Z,62.927246
2019-03-26T08:45:21.369Z,63.336182
2019-03-26T08:47:35.204Z,62.37793
2019-03-26T08:49:48.939Z,62.408447
2019-03-26T08:52:02.727Z,63.647461
2019-03-26T08:54:16.530Z,62.95166
2019-03-26T08:56:30.304Z,65.435791
2019-03-26T08:58:44.110Z,65.301514
2019-03-26T09:00:58.036Z,64.27002
2019-03-26T09:03:19.483Z,64.959717
2019-03-26T09:05:40.532Z,64.447021
2019-03-26T09:07:54.523Z,65.582275
2019-03-26T09:10:08.443Z,66.131592
2019-03-26T09:12:22.440Z,66.955566
2019-03-26T09:14:36.368Z,66.436768
2019-03-26T09:16:51.544Z,66.540527
2019-03-26T09:19:05.353Z,67.779541
2019-03-26T09:21:19.142Z,67.132568
2019-03-26T09:23:33.999Z,66.644287
2019-03-26T09:25:47.840Z,67.474365
2019-03-26T09:28:01.635Z,66.540527
2019-03-26T09:30:15.392Z,67.474365
2019-03-26T09:32:29.180Z,66.925049
2019-03-26T09:34:42.935Z,65.759277
2019-03-26T09:36:56.721Z,65.075684
2019-03-26T09:39:10.560Z,65.045166
2019-03-26T09:41:25.315Z,65.637207
2019-03-26T09:43:39.183Z,61.517334
2019-03-26T09:45:53.011Z,64.63623
2019-03-26T09:48:06.910Z,64.221191
2019-03-26T09:50:21.602Z,66.149902
2019-03-26T09:52:35.481Z,64.605713
2019-03-26T09:54:49.333Z,62.750244
2019-03-26T09:57:03.187Z,65.118408
2019-03-26T09:59:17.117Z,62.750244
2019-03-26T10:01:31.032Z,62.469482
2019-03-26T10:03:44.904Z,63.116455
2019-03-26T10:05:58.795Z,63.427734
2019-03-26T10:08:13.704Z,63.116455
2019-03-26T10:10:27.603Z,63.739014
2019-03-26T10:12:41.494Z,62.738037
2019-03-26T10:14:55.425Z,64.697266
2019-03-26T10:17:09.335Z,63.739014
2019-03-26T10:19:23.306Z,63.012695
2019-03-26T10:21:37.226Z,63.665771
2019-03-26T10:23:51.124Z,64.801025
2019-03-26T10:26:05.061Z,64.593506
2019-03-26T10:28:18.883Z,63.867188
2019-03-26T10:30:32.776Z,63.458252
2019-03-26T10:32:46.622Z,64.801025
2019-03-26T10:35:00.443Z,65.72876
2019-03-26T10:37:14.405Z,66.522217
2019-03-26T10:39:28.415Z,63.146973
2019-03-26T10:41:42.290Z,63.769531
2019-03-26T10:43:56.207Z,65.106201
2019-03-26T10:46:10.117Z,67.791748
2019-03-26T10:48:24.041Z,64.385986
2019-03-26T10:50:38.019Z,64.355469
2019-03-26T10:52:51.891Z,63.562012
2019-03-26T10:55:05.788Z,64.801025
2019-03-26T10:57:21.839Z,66.137695
2019-03-26T10:59:33.897Z,66.168213
2019-03-26T11:01:48.072Z,66.656494
2019-03-26T11:04:03.004Z,67.205811
2019-03-26T11:06:17.137Z,68.95752
2019-03-26T11:08:30.928Z,68.719482
2019-03-26T11:10:44.798Z,68.304443
2019-03-26T11:12:58.722Z,67.553711
2019-03-26T11:15:03.769Z,66.418457
2019-03-26T11:17:17.799Z,67.346191
2019-03-26T11:19:31.689Z,66.967773
2019-03-26T11:21:45.468Z,66.967773
2019-03-26T11:23:59.254Z,67.687988
2019-03-26T11:26:13.049Z,67.584229
2019-03-26T11:28:26.843Z,67.895508
2019-03-26T11:30:41.081Z,66.894531
2019-03-26T11:32:54.946Z,67.407227
2019-03-26T11:35:08.764Z,68.029785
2019-03-26T11:37:22.565Z,67.791748
2019-03-26T11:39:36.404Z,67.895508
2019-03-26T11:41:50.306Z,67.376709
2019-03-26T11:44:04.769Z,67.346191
2019-03-26T11:46:18.021Z,65.386963
2019-03-26T11:48:31.853Z,66.760254
2019-03-26T11:50:45.664Z,65.698242
2019-03-26T11:52:59.478Z,64.874268
2019-03-26T11:55:13.341Z,64.666748
2019-03-26T11:57:26.100Z,62.780762
2019-03-26T11:59:39.870Z,65.020752
2019-03-26T12:01:53.681Z,62.957764
2019-03-26T12:04:07.520Z,62.823486
2019-03-26T12:06:21.291Z,61.071777
2019-03-26T12:08:35.033Z,60.174561
2019-03-26T12:10:48.818Z,62.341309
2019-03-26T12:13:02.720Z,59.246826
2019-03-26T12:15:16.453Z,60.925293
2019-03-26T12:17:30.362Z,62.677002
2019-03-26T12:19:44.169Z,60.48584
2019-03-26T12:21:58.020Z,58.630371
2019-03-26T12:24:11.925Z,60.662842
2019-03-26T12:26:25.769Z,60.327148
2019-03-26T12:28:39.617Z,58.032227
2019-03-26T12:30:53.386Z,59.783936
2019-03-26T12:33:07.214Z,58.752441
2019-03-26T12:35:21.088Z,59.887695
2019-03-26T12:37:34.864Z,61.94458
2019-03-26T12:39:58.779Z,60.192871
2019-03-26T12:42:03.822Z,59.838867
2019-03-26T12:44:18.155Z,61.279297
2019-03-26T12:46:32.028Z,61.206055
2019-03-26T12:48:45.908Z,63.031006
2019-03-26T12:50:59.980Z,61.175537
2019-03-26T12:53:13.861Z,62.207031
2019-03-26T12:55:27.822Z,60.943604
2019-03-26T12:57:41.745Z,62.384033
2019-03-26T12:59:55.605Z,61.248779
2019-03-26T13:02:08.535Z,60.430908
2019-03-26T13:04:22.436Z,61.975098
2019-03-26T13:06:36.362Z,60.839844
2019-03-26T13:08:50.202Z,61.248779
2019-03-26T13:11:03.387Z,60.430908
2019-03-26T13:13:18.304Z,61.047363
2019-03-26T13:15:32.182Z,60.430908
2019-03-26T13:17:46.417Z,62.384033
2019-03-26T13:19:59.241Z,61.560059
2019-03-26T13:22:13.081Z,60.839844
2019-03-26T13:24:26.976Z,61.871338
2019-03-26T13:26:40.923Z,63.208008
2019-03-26T13:28:55.281Z,62.384033
2019-03-26T13:31:09.154Z,61.560059
2019-03-26T13:33:23.138Z,61.352539
2019-03-26T13:35:37.132Z,60.943604
2019-03-26T13:37:50.997Z,61.016846
2019-03-26T15:35:17.864Z,68.658447
2019-03-26T15:37:31.711Z,69.378662
2019-03-26T15:39:45.587Z,69.140625
2019-03-26T15:41:59.350Z,68.212891
2019-03-26T15:44:13.165Z,68.212891
2019-03-26T15:46:27.082Z,68.725586
2019-03-26T15:48:40.883Z,68.212891
2019-03-26T15:50:54.664Z,68.31665
2019-03-26T15:53:08.548Z,67.901611
2019-03-26T15:55:22.275Z,67.462158
2019-03-26T15:57:36.079Z,67.974854
2019-03-26T15:59:49.891Z,67.565918
2019-03-26T16:02:03.697Z,66.943359
2019-03-26T16:04:17.479Z,67.358398
2019-03-26T16:06:31.299Z,65.19165
2019-03-26T16:08:45.101Z,66.534424
2019-03-26T16:10:58.906Z,66.8396
2019-03-26T16:13:12.678Z,67.254639
2019-03-26T16:15:26.464Z,66.119385
2019-03-26T16:17:41.193Z,66.430664
2019-03-26T16:19:55.014Z,65.637207
2019-03-26T16:22:08.790Z,67.181396
2019-03-26T16:24:22.580Z,67.047119
2019-03-26T16:26:36.389Z,66.772461
2019-03-26T16:28:50.151Z,66.870117
2019-03-26T16:31:03.936Z,66.741943
2019-03-26T16:33:17.743Z,67.150879
2019-03-26T16:35:31.521Z,67.254639
2019-03-26T16:37:45.344Z,67.047119
2019-03-26T16:39:59.091Z,68.182373
2019-03-26T16:42:12.925Z,66.534424
2019-03-26T16:44:26.671Z,66.741943
2019-03-26T16:46:40.440Z,66.534424
2019-03-26T16:48:54.259Z,66.119385
2019-03-26T16:51:08.030Z,66.430664
2019-03-26T16:53:21.831Z,66.430664
2019-03-26T16:55:35.662Z,65.814209
2019-03-26T16:57:49.487Z,66.326904
2019-03-26T17:00:03.279Z,67.150879
2019-03-26T17:02:17.046Z,66.015625
2019-03-26T17:04:30.870Z,66.119385
2019-03-26T17:06:44.693Z,65.29541
2019-03-26T17:08:58.469Z,65.020752
2019-03-26T17:11:12.287Z,65.429688
2019-03-26T17:13:26.092Z,66.357422
2019-03-26T17:15:39.881Z,67.797852
2019-03-26T17:17:53.688Z,67.388916
2019-03-26T17:20:07.493Z,66.973877
2019-03-26T17:22:21.256Z,66.973877
2019-03-26T17:24:35.037Z,66.870117
2019-03-26T17:26:48.827Z,66.461182
2019-03-26T17:29:02.614Z,66.564941
2019-03-26T17:31:16.393Z,66.253662
2019-03-26T17:33:30.196Z,65.429688
2019-03-26T17:35:44.004Z,66.046143
2019-03-26T17:37:59.772Z,66.07666
2019-03-26T17:40:11.534Z,66.491699
2019-03-26T17:42:25.295Z,66.491699
2019-03-26T17:44:39.082Z,67.108154
2019-03-26T17:46:52.923Z,67.108154
2019-03-26T17:49:06.731Z,66.906738
2019-03-26T17:51:20.519Z,66.833496
2019-03-26T17:53:34.309Z,66.729736
2019-03-26T17:55:49.073Z,67.346191
2019-03-26T17:58:02.823Z,66.937256
2019-03-26T18:00:16.635Z,67.242432
2019-03-26T18:02:30.423Z,67.242432
2019-03-26T18:04:44.198Z,67.034912
2019-03-26T18:06:58.018Z,66.833496
2019-03-26T18:09:11.803Z,67.242432
2019-03-26T18:11:25.613Z,67.138672
2019-03-26T18:13:39.574Z,68.170166
2019-03-26T18:15:53.402Z,66.729736
2019-03-26T18:18:07.232Z,66.729736
2019-03-26T18:20:31.781Z,67.657471
2019-03-26T18:22:36.137Z,68.066406
2019-03-26T18:24:49.888Z,67.553711
2019-03-26T18:27:03.722Z,67.76123
2019-03-26T18:29:17.585Z,67.449951
2019-03-26T18:31:31.393Z,66.522217
2019-03-26T18:33:45.283Z,67.242432
2019-03-26T18:35:59.176Z,68.170166
2019-03-26T18:38:14.803Z,67.86499
2019-03-26T18:40:26.848Z,67.138672
2019-03-26T18:42:44.087Z,68.273926
2019-03-26T18:44:54.629Z,68.273926
2019-03-26T18:47:08.530Z,68.896484
2019-03-26T18:49:22.395Z,67.657471
2019-03-26T18:51:36.207Z,67.96875
2019-03-26T18:53:50.063Z,67.86499
2019-03-26T18:55:16.055Z,68.792725
2019-03-26T18:57:30.315Z,67.346191
2019-03-26T18:59:44.444Z,68.688965
2019-03-26T19:01:58.427Z,69.000244
2019-03-26T19:04:12.335Z,68.377686
2019-03-26T19:06:26.253Z,69.512939
2019-03-26T19:08:40.252Z,69.40918
2019-03-26T19:10:54.331Z,70.648193
2019-03-26T19:13:18.325Z,69.000244
2019-03-26T19:15:23.045Z,68.585205
2019-03-26T19:17:36.959Z,70.129395
2019-03-26T19:19:50.830Z,71.264648
2019-03-26T19:22:04.716Z,67.96875
2019-03-26T19:24:18.613Z,69.927979
2019-03-26T19:26:32.516Z,70.751953
2019-03-26T19:28:46.505Z,71.575928
2019-03-26T19:31:00.360Z,70.336914
2019-03-26T19:33:14.561Z,72.192383
2019-03-26T19:35:28.550Z,71.368408
2019-03-26T19:37:42.475Z,70.959473
2019-03-26T19:39:56.344Z,69.616699
2019-03-26T19:42:10.260Z,71.575928
2019-03-26T19:44:24.133Z,70.440674
2019-03-26T19:46:38.034Z,71.368408
2019-03-26T19:48:52.043Z,71.368408
2019-03-26T19:51:05.922Z,71.063232
2019-03-26T19:53:19.821Z,72.094727
2019-03-26T19:55:33.856Z,72.711182
2019-03-26T19:57:47.717Z,71.679688
2019-03-26T20:00:01.597Z,70.544434
2019-03-26T20:02:15.591Z,71.160889
2019-03-26T20:04:29.445Z,71.679688
2019-03-26T20:06:43.295Z,72.503662
2019-03-26T20:08:57.263Z,71.990967
2019-03-26T20:11:11.171Z,72.296143
2019-03-26T20:13:25.104Z,72.094727
2019-03-26T20:15:39.019Z,72.094727
2019-03-26T20:17:52.901Z,72.296143
2019-03-26T20:20:06.845Z,72.503662
2019-03-26T20:22:20.742Z,72.918701
2019-03-26T20:24:34.615Z,73.052979
2019-03-26T20:26:48.503Z,70.98999
2019-03-26T20:29:02.380Z,71.917725
2019-03-26T20:31:16.299Z,69.854736
2019-03-26T20:33:30.166Z,71.30127
2019-03-26T20:35:45.026Z,70.062256
2019-03-26T20:37:58.940Z,69.439697
2019-03-26T20:40:12.815Z,72.540283
2019-03-26T20:42:26.807Z,70.98999
2019-03-26T20:44:48.019Z,69.750977
2019-03-26T20:47:02.106Z,68.511963
2019-03-26T20:49:15.858Z,69.030762
2019-03-26T20:51:29.676Z,68.444824
2019-03-26T20:53:43.463Z,70.166016
2019-03-26T20:55:57.236Z,69.750977
2019-03-26T20:58:11.010Z,71.508789
2019-03-26T21:00:24.808Z,68.304443
2019-03-26T21:02:38.576Z,70.269775
2019-03-26T21:04:52.915Z,68.615723
2019-03-26T21:07:06.845Z,67.687988
2019-03-26T21:09:20.911Z,68.408203
2019-03-26T21:11:34.765Z,67.999268
2019-03-26T21:13:50.823Z,70.269775
2019-03-26T21:31:08.423Z,70.062256
2019-03-26T21:33:22.510Z,70.574951
2019-03-26T21:35:36.375Z,67.999268
2019-03-26T21:37:50.348Z,67.584229
2019-03-26T21:40:04.222Z,67.895508
2019-03-26T21:42:18.139Z,69.543457
2019-03-26T21:44:32.070Z,68.615723
2019-03-26T21:46:46.017Z,70.678711
2019-03-26T21:48:59.883Z,68.511963
2019-03-26T21:51:13.826Z,68.408203
2019-03-26T21:53:27.831Z,67.687988
2019-03-26T21:55:41.926Z,68.719482
2019-03-26T21:57:56.846Z,67.480469
2019-03-26T22:00:10.811Z,69.342041
2019-03-26T22:02:24.785Z,70.574951
2019-03-26T22:04:38.727Z,69.750977
2019-03-26T22:06:52.763Z,70.233154
2019-03-26T22:09:06.785Z,71.063232
2019-03-26T22:11:20.754Z,68.408203
2019-03-26T22:13:34.862Z,67.791748
2019-03-26T22:15:48.858Z,67.999268
2019-03-26T22:18:02.835Z,68.273926
2019-03-26T22:20:16.862Z,68.585205
2019-03-26T22:22:30.893Z,67.96875
2019-03-26T22:24:44.852Z,67.346191
2019-03-26T22:26:58.878Z,67.96875
2019-03-26T22:29:12.872Z,68.066406
2019-03-26T22:31:26.881Z,67.895508
2019-03-26T22:33:40.884Z,67.999268
2019-03-26T22:35:56.073Z,68.511963
2019-03-26T22:38:09.202Z,68.103027
2019-03-26T22:40:23.187Z,68.304443
2019-03-26T22:42:37.218Z,67.687988
2019-03-26T22:44:51.216Z,67.272949
2019-03-26T22:47:05.227Z,68.304443
2019-03-26T22:49:19.239Z,67.999268
2019-03-26T22:51:33.261Z,69.854736
2019-03-26T22:53:47.224Z,67.895508
2019-03-26T22:56:02.223Z,68.719482
2019-03-26T22:58:16.192Z,68.64624
2019-03-26T23:00:30.176Z,68.54248
2019-03-26T23:02:44.184Z,69.061279
2019-03-26T23:04:58.204Z,68.75
2019-03-26T23:07:12.202Z,69.580078
2019-03-26T23:09:26.230Z,69.061279
2019-03-26T23:11:41.264Z,68.988037
2019-03-26T23:13:55.308Z,71.466064
2019-03-26T23:16:10.092Z,71.160889
2019-03-26T23:18:31.774Z,69.714355
2019-03-26T23:20:46.276Z,71.368408
2019-03-26T23:23:07.786Z,71.710205
2019-03-26T23:25:22.465Z,72.015381
2019-03-26T23:27:46.051Z,72.2229
2019-03-26T23:30:00.792Z,72.570801
2019-03-26T23:32:14.793Z,72.570801
2019-03-26T23:34:28.792Z,71.740723
2019-03-26T23:36:43.685Z,72.912598
2019-03-26T23:38:59.414Z,73.431396
2019-03-26T23:41:13.759Z,73.431396
2019-03-26T23:43:26.754Z,72.979736
2019-03-26T23:45:40.684Z,73.394775
2019-03-26T23:47:55.448Z,73.638916
2019-03-26T23:50:09.448Z,73.742676
2019-03-26T23:52:24.220Z,73.944092
2019-03-26T23:54:37.199Z,73.944092
2019-03-26T23:56:52.022Z,73.840332
2019-03-26T23:59:06.101Z,74.151611
